Time;durP1;ratioP1;P1;durP2;ratioP2;P2;SDS_P1;SDS_P2;PMS_P1;PMS_P2;Temp;Humidity;BMP_temperature;BMP_pressure;BME280_temperature;BME280_humidity;BME280_pressure;Samples;Min_cycle;Max_cycle;Signal;HPM_P1;HPM_P2
2021/03/18 00:00:39;;;;;;;6.43;3.03;;;0.90;90.70;;;;;;5074728;28;20154;-73
2021/03/18 00:03:05;;;;;;;7.25;3.58;;;0.90;89.90;;;;;;5073873;28;20036;-73
2021/03/18 00:05:31;;;;;;;6.15;3.60;;;0.90;90.00;;;;;;5058061;28;20045;-73
2021/03/18 00:07:57;;;;;;;6.55;2.95;;;0.80;90.30;;;;;;5077163;28;20090;-73
2021/03/18 00:10:22;;;;;;;8.73;3.42;;;0.90;90.10;;;;;;5080922;28;20033;-73
2021/03/18 00:12:48;;;;;;;13.80;4.20;;;0.80;90.20;;;;;;5076435;28;20032;-73
2021/03/18 00:15:14;;;;;;;8.27;3.88;;;0.80;90.60;;;;;;5073757;28;20059;-73
2021/03/18 00:17:40;;;;;;;5.60;3.25;;;0.80;90.80;;;;;;5072717;28;20125;-73
2021/03/18 00:20:09;;;;;;;4.75;2.92;;;0.80;90.40;;;;;;5072627;28;20032;-73
2021/03/18 00:22:42;;;;;;;7.28;3.47;;;0.70;90.20;;;;;;5077813;28;20037;-73
2021/03/18 00:25:10;;;;;;;5.90;3.72;;;0.80;90.20;;;;;;5075538;28;20101;-73
2021/03/18 00:27:37;;;;;;;7.30;3.22;;;0.80;90.20;;;;;;5078792;28;20119;-74
2021/03/18 00:30:04;;;;;;;8.50;3.72;;;0.70;90.30;;;;;;5079843;28;20068;-73
2021/03/18 00:32:30;;;;;;;6.03;3.40;;;0.70;90.00;;;;;;5075112;28;20047;-73
2021/03/18 00:34:56;;;;;;;6.38;3.47;;;0.70;90.10;;;;;;5073927;28;20048;-73
2021/03/18 00:37:21;;;;;;;10.00;4.03;;;0.80;90.10;;;;;;5079780;28;20066;-73
2021/03/18 00:39:47;;;;;;;6.40;3.58;;;0.70;90.10;;;;;;5073778;28;20452;-73
2021/03/18 00:42:12;;;;;;;6.82;3.42;;;0.70;90.00;;;;;;5071680;28;20028;-73
2021/03/18 00:44:38;;;;;;;6.75;3.83;;;0.70;90.30;;;;;;5087904;28;20032;-74
2021/03/18 00:47:04;;;;;;;7.30;4.05;;;0.80;90.20;;;;;;5059979;28;20036;-73
2021/03/18 00:49:29;;;;;;;5.57;3.33;;;0.70;90.10;;;;;;5085785;28;20040;-73
2021/03/18 00:51:56;;;;;;;6.20;3.63;;;0.70;90.00;;;;;;5073392;28;20090;-73
2021/03/18 00:54:21;;;;;;;7.53;3.90;;;0.80;90.30;;;;;;5072015;28;20428;-73
2021/03/18 00:56:47;;;;;;;7.10;3.58;;;0.80;90.40;;;;;;5071977;28;20036;-73
2021/03/18 00:59:13;;;;;;;7.47;3.80;;;0.70;90.40;;;;;;5072148;28;20478;-73
2021/03/18 01:01:39;;;;;;;8.98;3.83;;;0.80;90.70;;;;;;5075513;28;20040;-73
2021/03/18 01:04:05;;;;;;;7.80;4.05;;;0.80;90.80;;;;;;5081715;28;20044;-73
2021/03/18 01:06:31;;;;;;;7.50;3.47;;;0.80;90.60;;;;;;5073039;28;20040;-73
2021/03/18 01:08:58;;;;;;;5.18;3.88;;;0.80;90.60;;;;;;5079377;28;20135;-73
2021/03/18 01:11:33;;;;;;;5.20;3.65;;;0.80;90.50;;;;;;5076630;28;20113;-73
2021/03/18 01:14:02;;;;;;;6.25;3.47;;;0.80;90.80;;;;;;5077836;28;20359;-74
2021/03/18 01:16:32;;;;;;;5.63;3.60;;;0.80;90.80;;;;;;5081109;28;20040;-73
2021/03/18 01:19:04;;;;;;;5.47;2.88;;;0.90;90.70;;;;;;5084711;28;20040;-73
2021/03/18 01:21:33;;;;;;;5.63;3.50;;;0.90;90.50;;;;;;5087290;28;20472;-73
2021/03/18 01:24:03;;;;;;;4.63;3.20;;;0.90;90.60;;;;;;5071048;28;20033;-73
2021/03/18 01:26:29;;;;;;;7.95;3.63;;;1.00;90.50;;;;;;5072623;28;20044;-74
2021/03/18 01:28:54;;;;;;;5.32;3.30;;;1.00;90.40;;;;;;5071082;28;20387;-73
2021/03/18 01:31:21;;;;;;;6.38;3.38;;;1.00;90.50;;;;;;5090574;28;20066;-73
2021/03/18 01:33:46;;;;;;;5.25;3.20;;;1.00;90.60;;;;;;5077139;28;20048;-73
2021/03/18 01:36:13;;;;;;;7.57;3.60;;;1.00;90.40;;;;;;5078606;28;20037;-73
2021/03/18 01:38:40;;;;;;;7.07;4.07;;;1.00;90.60;;;;;;5071493;28;20041;-73
2021/03/18 01:41:06;;;;;;;7.95;4.72;;;1.00;90.60;;;;;;5070703;28;20056;-73
2021/03/18 01:43:32;;;;;;;5.85;4.05;;;1.10;90.70;;;;;;5052791;28;20071;-73
2021/03/18 01:45:58;;;;;;;7.47;4.10;;;1.10;90.70;;;;;;5070546;28;20040;-73
2021/03/18 01:48:24;;;;;;;9.13;4.00;;;1.00;90.40;;;;;;5056184;28;20083;-73
2021/03/18 01:50:50;;;;;;;7.90;3.80;;;1.00;90.70;;;;;;5071385;28;20414;-73
2021/03/18 01:53:19;;;;;;;10.57;4.05;;;1.00;90.70;;;;;;5071569;28;20085;-73
2021/03/18 01:55:47;;;;;;;9.13;4.47;;;1.00;90.80;;;;;;5070110;28;20044;-73
2021/03/18 01:58:13;;;;;;;6.20;3.90;;;1.00;90.50;;;;;;5070883;28;20107;-73
2021/03/18 02:00:42;;;;;;;6.97;3.97;;;1.00;90.60;;;;;;5066734;28;20082;-74
2021/03/18 02:03:08;;;;;;;8.90;4.35;;;1.00;90.70;;;;;;5053210;28;20514;-73
2021/03/18 02:05:34;;;;;;;7.32;3.88;;;1.00;90.70;;;;;;5053204;28;20036;-73
2021/03/18 02:08:01;;;;;;;8.57;3.80;;;1.00;90.70;;;;;;5054992;28;20045;-73
2021/03/18 02:10:32;;;;;;;8.65;3.85;;;1.00;90.50;;;;;;5072880;28;20036;-73
2021/03/18 02:12:59;;;;;;;8.63;3.80;;;1.00;90.50;;;;;;5085709;28;20033;-73
2021/03/18 02:15:38;;;;;;;6.30;3.60;;;1.00;90.60;;;;;;5075937;28;20035;-73
2021/03/18 02:18:12;;;;;;;5.90;3.85;;;1.00;90.50;;;;;;5072274;28;20060;-73
2021/03/18 02:20:46;;;;;;;9.07;4.65;;;1.00;90.80;;;;;;5084847;28;20132;-73
2021/03/18 02:23:49;;;;;;;6.93;3.92;;;1.00;90.80;;;;;;5070248;28;20119;-73
2021/03/18 02:26:33;;;;;;;6.85;4.10;;;1.00;90.90;;;;;;5074316;28;20066;-73
2021/03/18 02:29:05;;;;;;;6.82;4.13;;;1.00;90.70;;;;;;5069663;28;20604;-73
2021/03/18 02:32:00;;;;;;;8.95;4.10;;;1.10;90.70;;;;;;5077362;28;20040;-73
2021/03/18 02:34:51;;;;;;;7.32;4.05;;;1.00;90.70;;;;;;5070282;28;20094;-73
2021/03/18 02:37:21;;;;;;;6.28;4.10;;;1.00;90.60;;;;;;5069616;28;20079;-73
2021/03/18 02:39:51;;;;;;;7.45;4.45;;;1.00;90.70;;;;;;5075362;28;20085;-73
2021/03/18 02:42:22;;;;;;;8.00;4.82;;;1.00;90.70;;;;;;5071398;28;20127;-73
2021/03/18 02:44:51;;;;;;;7.38;4.85;;;1.00;90.80;;;;;;5068286;28;20040;-73
2021/03/18 02:47:21;;;;;;;6.95;4.63;;;1.00;90.90;;;;;;5090640;28;20047;-73
2021/03/18 02:49:49;;;;;;;7.90;4.65;;;0.90;90.90;;;;;;5053532;28;20071;-73
2021/03/18 02:52:19;;;;;;;8.40;4.53;;;1.00;90.90;;;;;;5093644;28;20127;-74
2021/03/18 02:54:46;;;;;;;8.40;4.72;;;1.00;90.80;;;;;;5085589;28;20683;-74
2021/03/18 02:57:15;;;;;;;11.48;5.10;;;1.00;90.80;;;;;;5074595;28;20485;-73
2021/03/18 02:59:43;;;;;;;6.50;4.30;;;1.00;90.80;;;;;;5071336;28;20029;-73
2021/03/18 03:02:16;;;;;;;12.23;4.97;;;1.00;90.60;;;;;;5070965;28;20068;-73
2021/03/18 03:04:42;;;;;;;7.10;4.57;;;1.00;90.70;;;;;;5069246;28;20090;-73
2021/03/18 03:07:11;;;;;;;7.65;4.60;;;0.90;90.70;;;;;;5059427;28;20040;-73
2021/03/18 03:09:40;;;;;;;8.07;4.45;;;0.90;90.60;;;;;;5080624;28;20033;-73
2021/03/18 03:12:08;;;;;;;7.07;4.32;;;0.90;90.30;;;;;;5075576;28;20413;-73
2021/03/18 03:14:34;;;;;;;8.75;4.55;;;0.90;90.10;;;;;;5092787;28;20055;-73
2021/03/18 03:17:02;;;;;;;7.90;4.53;;;0.80;90.30;;;;;;5055853;28;20032;-73
2021/03/18 03:19:29;;;;;;;6.88;4.20;;;0.70;90.40;;;;;;5058695;28;20043;-73
2021/03/18 03:21:56;;;;;;;9.38;4.60;;;0.70;90.20;;;;;;5074382;28;20111;-73
2021/03/18 03:24:23;;;;;;;10.00;4.65;;;0.70;90.40;;;;;;5078190;28;20040;-73
2021/03/18 03:26:51;;;;;;;7.00;4.60;;;0.60;90.60;;;;;;5073350;28;20123;-73
2021/03/18 03:29:17;;;;;;;7.82;4.65;;;0.60;90.80;;;;;;5061069;28;20032;-73
2021/03/18 03:31:44;;;;;;;10.82;4.82;;;0.60;90.80;;;;;;5085300;28;20048;-73
2021/03/18 03:34:10;;;;;;;9.75;5.03;;;0.60;90.90;;;;;;5073331;28;20078;-73
2021/03/18 03:36:36;;;;;;;9.15;4.03;;;0.60;90.80;;;;;;5089885;28;20540;-73
2021/03/18 03:39:06;;;;;;;6.30;4.30;;;0.60;90.50;;;;;;5082859;28;20059;-73
2021/03/18 03:41:32;;;;;;;9.13;4.45;;;0.60;90.50;;;;;;5083941;28;20093;-73
2021/03/18 03:43:57;;;;;;;7.97;4.40;;;0.60;90.60;;;;;;5083251;28;20118;-73
2021/03/18 03:46:23;;;;;;;11.77;4.75;;;0.60;90.70;;;;;;5080465;28;20048;-73
2021/03/18 03:48:48;;;;;;;11.20;4.82;;;0.50;90.50;;;;;;5083161;28;20036;-73
2021/03/18 03:51:14;;;;;;;8.80;4.60;;;0.60;90.40;;;;;;5084707;28;20043;-73
2021/03/18 03:53:52;;;;;;;9.98;4.57;;;0.60;90.60;;;;;;5074285;28;20092;-73
2021/03/18 03:56:28;;;;;;;9.70;4.25;;;0.70;90.70;;;;;;5074884;28;20079;-73
2021/03/18 03:59:10;;;;;;;6.65;4.90;;;0.70;90.40;;;;;;5075103;28;20036;-73
2021/03/18 04:01:35;;;;;;;8.73;4.80;;;0.60;90.40;;;;;;5077299;28;20485;-74
2021/03/18 04:04:09;;;;;;;8.57;4.47;;;0.60;90.50;;;;;;5074231;28;20032;-73
2021/03/18 04:06:36;;;;;;;10.27;4.30;;;0.70;90.40;;;;;;5055392;28;20495;-73
2021/03/18 04:09:04;;;;;;;7.50;4.25;;;0.70;90.50;;;;;;5087084;28;20043;-73
2021/03/18 04:11:36;;;;;;;8.68;4.72;;;0.70;90.50;;;;;;5080680;28;20044;-73
2021/03/18 04:14:04;;;;;;;5.60;4.53;;;0.70;90.90;;;;;;5084264;28;20036;-73
2021/03/18 04:16:35;;;;;;;6.50;4.65;;;0.70;90.90;;;;;;5067186;28;20043;-73
2021/03/18 04:19:01;;;;;;;8.38;5.00;;;0.70;90.80;;;;;;5073317;28;20037;-73
2021/03/18 04:21:30;;;;;;;8.75;5.32;;;0.70;90.80;;;;;;5071088;28;20044;-73
2021/03/18 04:24:01;;;;;;;13.88;6.20;;;0.80;90.80;;;;;;5090298;28;20115;-73
2021/03/18 04:26:27;;;;;;;12.57;5.75;;;0.80;90.80;;;;;;5086258;28;20055;-73
2021/03/18 04:28:53;;;;;;;11.18;5.95;;;0.80;90.80;;;;;;5077811;28;20029;-73
2021/03/18 04:31:19;;;;;;;8.48;5.43;;;0.80;90.80;;;;;;5072533;28;20032;-74
2021/03/18 04:33:45;;;;;;;10.38;5.88;;;0.80;90.60;;;;;;5075715;28;20052;-73
2021/03/18 04:36:11;;;;;;;6.38;4.82;;;0.80;90.50;;;;;;5072560;28;20048;-73
2021/03/18 04:38:37;;;;;;;7.10;4.47;;;0.90;90.90;;;;;;5072189;28;20037;-74
2021/03/18 04:41:05;;;;;;;5.90;4.65;;;0.90;90.80;;;;;;5085489;28;20038;-74
2021/03/18 04:43:30;;;;;;;7.20;4.07;;;1.00;91.00;;;;;;5076663;28;20029;-73
2021/03/18 04:45:58;;;;;;;6.40;4.45;;;1.00;90.80;;;;;;5077046;28;20516;-73
2021/03/18 04:48:25;;;;;;;5.55;3.88;;;1.10;90.80;;;;;;5053006;28;20048;-73
2021/03/18 04:50:50;;;;;;;4.75;3.97;;;1.00;90.80;;;;;;5064056;28;20101;-73
2021/03/18 04:53:19;;;;;;;4.40;3.60;;;1.10;90.90;;;;;;5080151;28;20458;-73
2021/03/18 04:55:45;;;;;;;4.18;3.78;;;1.10;90.90;;;;;;5080866;28;20385;-73
2021/03/18 04:58:11;;;;;;;6.28;4.13;;;1.20;91.00;;;;;;5092891;28;20497;-73
2021/03/18 05:00:39;;;;;;;4.82;3.90;;;1.20;91.00;;;;;;5079863;28;20086;-74
2021/03/18 05:03:09;;;;;;;5.57;3.70;;;1.20;91.00;;;;;;5071602;28;20044;-73
2021/03/18 05:05:37;;;;;;;4.32;3.92;;;1.30;91.00;;;;;;5072448;28;21048;-73
2021/03/18 05:08:04;;;;;;;5.80;3.88;;;1.30;90.80;;;;;;5089478;28;20036;-73
2021/03/18 05:10:33;;;;;;;6.50;4.03;;;1.40;90.80;;;;;;5076353;28;20064;-73
2021/03/18 05:13:04;;;;;;;7.07;4.13;;;1.50;90.80;;;;;;5070827;28;20488;-73
2021/03/18 05:15:31;;;;;;;5.07;3.95;;;1.50;90.60;;;;;;5087789;28;20035;-73
2021/03/18 05:17:57;;;;;;;5.03;3.97;;;1.50;90.70;;;;;;5071944;28;20051;-73
2021/03/18 05:20:24;;;;;;;8.30;4.95;;;1.50;90.70;;;;;;5076287;28;20032;-74
2021/03/18 05:22:51;;;;;;;8.43;4.70;;;1.60;90.60;;;;;;5072602;28;20123;-73
2021/03/18 05:25:22;;;;;;;7.80;5.53;;;1.60;90.70;;;;;;5071658;28;20059;-73
2021/03/18 05:27:48;;;;;;;6.38;4.85;;;1.60;90.70;;;;;;5071793;28;20055;-74
2021/03/18 05:30:16;;;;;;;7.57;4.68;;;1.60;90.60;;;;;;5070570;28;20107;-74
2021/03/18 05:32:42;;;;;;;5.30;4.15;;;1.60;90.60;;;;;;5072074;28;20036;-74
2021/03/18 05:35:10;;;;;;;6.97;4.05;;;1.70;90.50;;;;;;5072146;28;20075;-74
2021/03/18 05:37:36;;;;;;;6.95;4.40;;;1.70;90.50;;;;;;5080135;28;20039;-73
2021/03/18 05:40:05;;;;;;;5.13;4.22;;;1.70;90.50;;;;;;5090858;28;20035;-73
2021/03/18 05:42:32;;;;;;;9.93;4.40;;;1.80;90.50;;;;;;5072674;28;20458;-73
2021/03/18 05:44:57;;;;;;;7.88;5.00;;;1.80;90.50;;;;;;5087762;28;20089;-73
2021/03/18 05:47:24;;;;;;;10.13;5.80;;;1.90;90.40;;;;;;5075219;28;20036;-73
2021/03/18 05:49:50;;;;;;;8.35;5.80;;;1.90;90.30;;;;;;5075415;28;20505;-73
2021/03/18 05:52:17;;;;;;;9.38;5.57;;;1.90;90.40;;;;;;5070323;28;20534;-73
2021/03/18 05:54:47;;;;;;;8.15;5.57;;;1.90;90.40;;;;;;5070732;28;20040;-73
2021/03/18 05:57:15;;;;;;;7.72;5.40;;;1.90;90.40;;;;;;5067940;28;20033;-74
2021/03/18 05:59:45;;;;;;;8.70;5.65;;;2.00;90.40;;;;;;5071441;28;20051;-74
2021/03/18 06:02:12;;;;;;;10.15;5.82;;;2.00;90.40;;;;;;5076537;28;20586;-74
2021/03/18 06:04:39;;;;;;;8.45;5.20;;;2.00;90.70;;;;;;5081677;28;20043;-73
2021/03/18 06:07:06;;;;;;;11.07;5.63;;;2.00;90.80;;;;;;5088839;28;20114;-74
2021/03/18 06:09:32;;;;;;;8.80;5.22;;;2.00;90.70;;;;;;5063036;28;20386;-74
2021/03/18 06:11:58;;;;;;;9.98;5.93;;;2.10;90.80;;;;;;5078275;28;20040;-74
2021/03/18 06:14:25;;;;;;;8.85;5.97;;;2.20;90.80;;;;;;5080471;28;20049;-74
2021/03/18 06:16:53;;;;;;;8.75;5.88;;;2.10;90.70;;;;;;5077087;28;20086;-74
2021/03/18 06:19:20;;;;;;;10.18;5.78;;;2.10;90.90;;;;;;5071111;28;20041;-74
2021/03/18 06:21:48;;;;;;;8.20;5.70;;;2.20;91.00;;;;;;5084235;28;20130;-74
2021/03/18 06:24:15;;;;;;;8.80;5.78;;;2.30;90.80;;;;;;5074764;28;20045;-73
2021/03/18 06:26:40;;;;;;;10.80;5.75;;;2.30;90.70;;;;;;5060928;28;20123;-74
2021/03/18 06:29:28;;;;;;;11.43;5.80;;;2.40;90.80;;;;;;5095240;28;20071;-73
2021/03/18 06:31:55;;;;;;;9.68;6.03;;;2.40;90.90;;;;;;5087425;28;20040;-73
2021/03/18 06:34:43;;;;;;;8.77;5.63;;;2.40;90.90;;;;;;5076661;28;20489;-73
2021/03/18 06:37:34;;;;;;;11.07;5.72;;;2.50;90.80;;;;;;5047481;28;20054;-73
2021/03/18 06:40:05;;;;;;;10.68;5.45;;;2.50;91.00;;;;;;5082303;28;20056;-73
2021/03/18 06:42:32;;;;;;;9.90;5.47;;;2.50;91.10;;;;;;5079049;22;20091;-73
2021/03/18 06:45:08;;;;;;;10.77;6.10;;;2.60;91.40;;;;;;5051318;28;20045;-73
2021/03/18 06:47:57;;;;;;;8.50;5.47;;;2.60;91.30;;;;;;5082643;28;20043;-73
2021/03/18 06:50:25;;;;;;;8.05;5.95;;;2.60;91.40;;;;;;5089249;28;20063;-73
2021/03/18 06:52:51;;;;;;;10.02;5.50;;;2.60;91.30;;;;;;5074150;28;20079;-73
2021/03/18 06:55:32;;;;;;;10.07;5.05;;;2.60;91.50;;;;;;5070796;28;20382;-73
2021/03/18 06:58:25;;;;;;;10.70;5.82;;;2.80;91.60;;;;;;5077848;28;20043;-73
2021/03/18 07:00:57;;;;;;;9.93;5.85;;;2.80;91.80;;;;;;5081151;28;20036;-72
2021/03/18 07:03:34;;;;;;;11.70;5.88;;;2.90;92.00;;;;;;5075378;28;20119;-73
2021/03/18 07:06:02;;;;;;;9.27;5.53;;;3.00;91.80;;;;;;5088169;28;20024;-73
2021/03/18 07:08:36;;;;;;;10.07;6.10;;;3.10;92.00;;;;;;5065775;28;20120;-73
2021/03/18 07:11:36;;;;;;;9.13;5.70;;;3.20;91.80;;;;;;5073159;28;20032;-73
2021/03/18 07:14:01;;;;;;;10.82;6.15;;;3.30;91.70;;;;;;5029826;28;20052;-72
2021/03/18 07:16:38;;;;;;;9.73;5.43;;;3.40;91.70;;;;;;5071580;28;20116;-73
2021/03/18 07:19:04;;;;;;;10.25;5.70;;;3.50;91.70;;;;;;5054739;28;20041;-73
2021/03/18 07:21:38;;;;;;;9.02;5.78;;;3.60;91.50;;;;;;5054572;28;20452;-73
2021/03/18 07:24:30;;;;;;;7.93;6.18;;;3.70;91.30;;;;;;5061126;28;20059;-73
2021/03/18 07:26:59;;;;;;;9.13;6.70;;;3.80;91.30;;;;;;5063843;28;20052;-73
2021/03/18 07:29:29;;;;;;;13.68;6.60;;;3.80;91.30;;;;;;5074093;28;20174;-73
2021/03/18 07:31:55;;;;;;;7.53;5.22;;;3.90;91.50;;;;;;5073167;28;20093;-73
2021/03/18 07:34:21;;;;;;;9.10;5.75;;;3.90;91.30;;;;;;5056331;28;20044;-73
2021/03/18 07:36:48;;;;;;;12.45;6.00;;;3.90;91.20;;;;;;5071553;28;20040;-73
2021/03/18 07:39:14;;;;;;;11.90;5.65;;;4.00;91.40;;;;;;5074055;28;20028;-73
2021/03/18 07:41:44;;;;;;;8.35;5.25;;;4.10;91.20;;;;;;5073659;28;20048;-72
2021/03/18 07:44:13;;;;;;;12.02;6.00;;;4.10;91.00;;;;;;5069412;28;20469;-73
2021/03/18 07:46:39;;;;;;;9.13;6.28;;;4.10;90.90;;;;;;5056243;28;20041;-73
2021/03/18 07:49:14;;;;;;;7.20;5.57;;;4.20;91.00;;;;;;5071209;28;20063;-73
2021/03/18 07:51:42;;;;;;;9.65;6.22;;;4.20;90.90;;;;;;5059470;28;20040;-73
2021/03/18 07:54:12;;;;;;;13.48;5.85;;;4.30;90.90;;;;;;5065013;28;20048;-73
2021/03/18 07:56:37;;;;;;;14.02;4.82;;;4.40;90.90;;;;;;5070913;28;20037;-73
2021/03/18 07:59:07;;;;;;;8.32;4.47;;;4.50;90.80;;;;;;5066966;28;20086;-73
2021/03/18 08:01:35;;;;;;;7.25;4.45;;;4.60;90.70;;;;;;5076314;28;20033;-73
2021/03/18 08:04:04;;;;;;;6.70;4.18;;;4.80;90.70;;;;;;5077328;28;20048;-73
2021/03/18 08:06:39;;;;;;;7.60;4.70;;;4.90;90.40;;;;;;5067650;28;20508;-73
2021/03/18 08:09:25;;;;;;;8.05;4.70;;;5.00;90.50;;;;;;5074334;28;20039;-73
2021/03/18 08:11:52;;;;;;;9.07;5.75;;;5.10;90.20;;;;;;5058241;28;20059;-73
2021/03/18 08:14:23;;;;;;;9.45;4.45;;;5.20;90.10;;;;;;5061877;28;20045;-73
2021/03/18 08:16:49;;;;;;;8.90;4.68;;;5.30;90.00;;;;;;5069045;28;20366;-73
2021/03/18 08:19:18;;;;;;;12.15;4.80;;;5.30;90.00;;;;;;5073483;28;20593;-73
2021/03/18 08:21:54;;;;;;;9.20;4.40;;;5.40;90.10;;;;;;5072458;28;20029;-73
2021/03/18 08:24:30;;;;;;;18.65;5.28;;;5.40;90.00;;;;;;5075649;28;20139;-73
2021/03/18 08:26:57;;;;;;;11.25;5.07;;;5.40;90.10;;;;;;5072333;28;20032;-73
2021/03/18 08:29:37;;;;;;;11.00;4.85;;;5.40;90.20;;;;;;5068890;28;20033;-73
2021/03/18 08:32:11;;;;;;;13.02;5.38;;;5.40;90.50;;;;;;5073534;28;20036;-73
2021/03/18 08:35:00;;;;;;;11.05;4.55;;;5.40;90.70;;;;;;5072416;28;20032;-73
2021/03/18 08:37:37;;;;;;;9.55;4.68;;;5.50;90.00;;;;;;5064839;28;20910;-73
2021/03/18 08:40:24;;;;;;;13.40;5.13;;;5.50;90.10;;;;;;5073810;28;20493;-73
2021/03/18 08:42:51;;;;;;;11.45;5.05;;;5.60;90.60;;;;;;5060679;28;20689;-73
2021/03/18 08:45:19;;;;;;;10.25;5.47;;;5.60;90.80;;;;;;5065654;28;20044;-73
2021/03/18 08:47:56;;;;;;;7.95;4.07;;;5.80;90.00;;;;;;5070478;28;20037;-73
2021/03/18 08:50:24;;;;;;;13.35;4.90;;;5.90;89.30;;;;;;5079246;28;20116;-73
2021/03/18 08:52:54;;;;;;;12.80;5.30;;;6.00;90.10;;;;;;5070895;28;20063;-72
2021/03/18 08:55:44;;;;;;;10.23;3.92;;;6.00;90.40;;;;;;5068696;28;20086;-73
2021/03/18 08:58:12;;;;;;;9.10;3.85;;;6.30;87.10;;;;;;5073796;28;20541;-73
2021/03/18 09:00:38;;;;;;;10.65;4.00;;;6.40;86.70;;;;;;5080283;28;20051;-73
2021/03/18 09:03:05;;;;;;;10.40;3.88;;;6.40;87.90;;;;;;5073338;28;20596;-73
2021/03/18 09:05:32;;;;;;;9.50;4.10;;;6.30;88.20;;;;;;5071037;28;20063;-73
2021/03/18 09:08:00;;;;;;;12.65;4.43;;;6.40;87.90;;;;;;5067878;28;20044;-74
2021/03/18 09:10:27;;;;;;;13.98;3.95;;;6.40;87.50;;;;;;5070312;28;20363;-73
2021/03/18 09:13:00;;;;;;;12.10;4.60;;;6.50;86.90;;;;;;5059694;28;20038;-73
2021/03/18 09:15:37;;;;;;;12.15;4.28;;;6.40;87.20;;;;;;5053956;28;20036;-73
2021/03/18 09:18:21;;;;;;;14.52;4.30;;;6.40;87.80;;;;;;5070922;28;20039;-73
2021/03/18 09:21:12;;;;;;;14.60;4.85;;;6.20;88.20;;;;;;5069733;28;20063;-73
2021/03/18 09:23:44;;;;;;;10.88;4.20;;;6.30;87.80;;;;;;5061751;28;20072;-73
2021/03/18 09:26:12;;;;;;;13.27;4.10;;;6.40;88.30;;;;;;5053480;28;20777;-73
2021/03/18 09:28:43;;;;;;;12.48;3.97;;;6.50;87.10;;;;;;5071402;28;20045;-73
2021/03/18 09:31:10;;;;;;;11.03;4.00;;;6.70;87.20;;;;;;5071233;28;20036;-72
2021/03/18 09:33:45;;;;;;;15.25;4.22;;;6.80;86.40;;;;;;5069494;28;20299;-73
2021/03/18 09:36:13;;;;;;;11.25;4.03;;;6.90;86.90;;;;;;5069862;28;20508;-73
2021/03/18 09:38:40;;;;;;;9.25;3.60;;;7.10;84.40;;;;;;5070138;28;20125;-73
2021/03/18 09:41:05;;;;;;;9.98;3.78;;;7.10;84.20;;;;;;5071862;28;20052;-73
2021/03/18 09:43:31;;;;;;;13.57;5.20;;;7.10;84.10;;;;;;5054281;28;20040;-73
2021/03/18 09:46:00;;;;;;;8.45;3.72;;;7.10;84.60;;;;;;5070855;28;20386;-73
2021/03/18 09:48:37;;;;;;;12.63;3.72;;;7.20;84.30;;;;;;5066735;28;20127;-73
2021/03/18 09:51:13;;;;;;;9.75;3.97;;;7.40;82.70;;;;;;5049604;28;20436;-73
2021/03/18 09:53:41;;;;;;;11.27;3.63;;;7.30;83.00;;;;;;5070512;28;20109;-73
2021/03/18 09:56:13;;;;;;;13.10;3.70;;;7.30;83.50;;;;;;5086473;28;20044;-73
2021/03/18 09:58:40;;;;;;;10.65;4.28;;;7.20;84.40;;;;;;5078405;28;20040;-73
2021/03/18 10:01:13;;;;;;;16.25;4.68;;;7.30;82.30;;;;;;5076168;28;20067;-73
2021/03/18 10:03:51;;;;;;;11.15;3.65;;;7.30;84.10;;;;;;5071284;28;20090;-73
2021/03/18 10:06:27;;;;;;;13.63;4.30;;;7.50;83.90;;;;;;5070749;28;20038;-73
2021/03/18 10:08:54;;;;;;;16.70;4.55;;;7.70;83.40;;;;;;5071232;28;20090;-73
2021/03/18 10:11:22;;;;;;;13.27;4.47;;;7.60;82.50;;;;;;5068691;28;20135;-73
2021/03/18 10:13:49;;;;;;;17.85;5.00;;;7.60;81.70;;;;;;5068083;28;20043;-73
2021/03/18 10:16:15;;;;;;;14.00;4.32;;;7.20;83.50;;;;;;5058436;28;20036;-73
2021/03/18 10:18:41;;;;;;;21.13;5.45;;;7.30;82.70;;;;;;5076071;28;20086;-73
2021/03/18 10:21:07;;;;;;;13.27;4.88;;;7.10;83.00;;;;;;5067605;28;20036;-73
2021/03/18 10:23:34;;;;;;;19.70;4.10;;;7.30;83.30;;;;;;5078962;28;20443;-73
2021/03/18 10:26:01;;;;;;;16.20;4.20;;;7.40;82.20;;;;;;5071743;28;20048;-73
2021/03/18 10:28:31;;;;;;;15.52;4.97;;;7.60;82.00;;;;;;5076492;28;20032;-73
2021/03/18 10:31:02;;;;;;;13.85;3.72;;;7.60;81.20;;;;;;5077908;28;20041;-73
2021/03/18 10:33:32;;;;;;;16.27;4.57;;;8.00;79.10;;;;;;5051035;28;20032;-74
2021/03/18 10:36:00;;;;;;;18.33;4.53;;;7.80;79.10;;;;;;5070302;28;20471;-73
2021/03/18 10:38:33;;;;;;;12.15;3.95;;;7.80;79.90;;;;;;5078093;28;20041;-73
2021/03/18 10:41:05;;;;;;;11.77;3.75;;;7.80;79.60;;;;;;5072623;28;20501;-73
2021/03/18 10:43:34;;;;;;;17.27;4.45;;;7.90;80.60;;;;;;5067981;28;20043;-73
2021/03/18 10:46:06;;;;;;;16.48;4.70;;;8.00;79.50;;;;;;5054074;28;20155;-73
2021/03/18 10:48:35;;;;;;;7.43;2.72;;;8.10;78.60;;;;;;5073712;28;20036;-73
2021/03/18 10:51:13;;;;;;;11.13;4.30;;;8.30;77.40;;;;;;5069895;28;20039;-73
2021/03/18 10:53:40;;;;;;;10.73;2.88;;;8.30;77.20;;;;;;5062155;28;20920;-73
2021/03/18 10:56:11;;;;;;;16.27;3.83;;;8.60;75.80;;;;;;5062161;28;20036;-73
2021/03/18 10:58:37;;;;;;;14.13;3.10;;;8.40;75.40;;;;;;5068325;28;20708;-73
2021/03/18 11:01:06;;;;;;;11.57;3.40;;;8.50;77.40;;;;;;5069002;28;20040;-73
2021/03/18 11:03:37;;;;;;;10.15;2.97;;;8.20;74.50;;;;;;5067670;28;20037;-73
2021/03/18 11:06:14;;;;;;;11.25;3.00;;;8.40;73.20;;;;;;5070707;28;20052;-74
2021/03/18 11:08:46;;;;;;;10.50;2.40;;;7.90;73.80;;;;;;5070306;28;20288;-73
2021/03/18 11:11:23;;;;;;;9.07;2.30;;;8.00;74.80;;;;;;5067987;28;20116;-73
2021/03/18 11:13:49;;;;;;;8.10;1.98;;;8.00;74.10;;;;;;5071070;28;20040;-73
2021/03/18 11:16:22;;;;;;;11.90;2.30;;;7.90;72.50;;;;;;5070342;28;20064;-73
2021/03/18 11:18:49;;;;;;;8.70;2.00;;;7.70;72.30;;;;;;5069390;28;20037;-73
2021/03/18 11:21:23;;;;;;;7.78;1.85;;;7.40;73.90;;;;;;5070176;28;20032;-73
2021/03/18 11:23:50;;;;;;;10.77;2.20;;;7.50;75.30;;;;;;5070844;28;20037;-74
2021/03/18 11:26:19;;;;;;;9.60;1.83;;;7.70;74.00;;;;;;5057901;28;20037;-73
2021/03/18 11:28:59;;;;;;;7.53;2.17;;;7.80;75.80;;;;;;5053120;28;20037;-73
2021/03/18 11:31:27;;;;;;;7.75;2.30;;;7.80;74.20;;;;;;5073905;28;20037;-73
2021/03/18 11:33:54;;;;;;;8.27;2.55;;;7.80;73.10;;;;;;5073404;28;20119;-73
2021/03/18 11:36:20;;;;;;;7.80;1.98;;;7.70;72.60;;;;;;5073560;28;20042;-73
2021/03/18 11:38:48;;;;;;;8.63;1.90;;;7.50;73.10;;;;;;5055749;28;20090;-72
2021/03/18 11:41:14;;;;;;;9.15;2.20;;;7.50;73.80;;;;;;5055316;28;20044;-73
2021/03/18 11:43:40;;;;;;;7.85;1.92;;;7.60;74.60;;;;;;5081002;28;20047;-73
2021/03/18 11:46:06;;;;;;;5.43;1.45;;;7.80;74.70;;;;;;5071637;28;20035;-73
2021/03/18 11:48:32;;;;;;;10.55;2.40;;;7.80;73.40;;;;;;5072032;28;20040;-73
2021/03/18 11:50:58;;;;;;;6.43;1.63;;;7.30;75.10;;;;;;5075923;28;20040;-73
2021/03/18 11:53:24;;;;;;;12.35;2.33;;;7.20;77.90;;;;;;5079931;28;20441;-73
2021/03/18 11:55:51;;;;;;;9.07;2.55;;;7.40;78.30;;;;;;5075351;28;20036;-72
2021/03/18 11:58:18;;;;;;;8.82;1.98;;;7.60;79.40;;;;;;5081630;28;20043;-73
2021/03/18 12:00:44;;;;;;;7.30;1.60;;;7.70;76.60;;;;;;5071904;28;20029;-73
2021/03/18 12:03:10;;;;;;;9.95;2.13;;;7.70;77.10;;;;;;5076050;28;20034;-73
2021/03/18 12:05:41;;;;;;;11.32;2.10;;;7.80;75.60;;;;;;5075294;28;20366;-73
2021/03/18 12:08:08;;;;;;;8.63;1.85;;;7.70;76.40;;;;;;5077185;28;20420;-73
2021/03/18 12:10:33;;;;;;;12.05;2.50;;;7.50;75.70;;;;;;5074720;28;20036;-73
2021/03/18 12:12:59;;;;;;;9.25;2.10;;;7.60;76.60;;;;;;5073355;28;20701;-73
2021/03/18 12:15:25;;;;;;;8.10;2.15;;;7.60;76.20;;;;;;5077724;28;20039;-73
2021/03/18 12:17:51;;;;;;;8.82;2.13;;;7.80;76.30;;;;;;5088362;28;20075;-73
2021/03/18 12:20:20;;;;;;;8.52;2.40;;;8.00;76.10;;;;;;5077098;28;20518;-73
2021/03/18 12:22:48;;;;;;;10.65;2.10;;;8.10;75.00;;;;;;5084861;28;20036;-73
2021/03/18 12:25:15;;;;;;;7.82;2.38;;;8.00;75.80;;;;;;5092884;28;20093;-73
2021/03/18 12:27:41;;;;;;;7.03;1.90;;;8.10;75.90;;;;;;5083562;28;20136;-73
2021/03/18 12:30:10;;;;;;;9.13;2.10;;;7.90;74.60;;;;;;5055227;28;20537;-73
2021/03/18 12:32:36;;;;;;;10.48;2.47;;;7.60;77.60;;;;;;5074795;28;20084;-73
2021/03/18 12:35:03;;;;;;;10.90;2.40;;;7.40;81.20;;;;;;5058102;28;20067;-73
2021/03/18 12:37:29;;;;;;;7.35;2.08;;;7.30;82.90;;;;;;5072755;28;20068;-73
2021/03/18 12:39:55;;;;;;;6.63;2.13;;;7.10;80.90;;;;;;5073281;28;20456;-73
2021/03/18 12:42:21;;;;;;;8.48;2.45;;;7.00;82.30;;;;;;5083532;28;20135;-73
2021/03/18 12:44:47;;;;;;;8.82;2.75;;;6.80;83.60;;;;;;5072143;28;20037;-73
2021/03/18 12:47:13;;;;;;;10.35;2.45;;;7.10;83.50;;;;;;5064938;28;20032;-73
2021/03/18 12:49:39;;;;;;;7.68;2.03;;;7.30;81.50;;;;;;5086623;28;20770;-73
2021/03/18 12:52:05;;;;;;;8.88;2.38;;;7.40;82.70;;;;;;5074795;28;20025;-73
2021/03/18 12:54:32;;;;;;;13.05;2.63;;;7.80;81.10;;;;;;5074283;28;20068;-73
2021/03/18 12:56:57;;;;;;;7.43;2.40;;;8.00;81.20;;;;;;5064469;28;20134;-73
2021/03/18 12:59:23;;;;;;;7.35;2.22;;;8.20;78.30;;;;;;5080896;28;20036;-73
2021/03/18 13:01:49;;;;;;;7.70;1.80;;;8.40;77.50;;;;;;5086714;28;20044;-73
2021/03/18 13:04:14;;;;;;;9.95;2.35;;;8.50;77.50;;;;;;5080494;28;20043;-73